sensor_id;sensor_type;location;lat;lon;timestamp;pressure;altitude;pressure_sealevel;temperature;humidity
26697;BME280;14312;52.614;13.496;2022-10-16T00:02:33;100489.25;;;18.49;65.97
26697;BME280;14312;52.614;13.496;2022-10-16T00:05:18;100481.97;;;18.50;65.76
26697;BME280;14312;52.614;13.496;2022-10-16T00:08:04;100493.28;;;18.52;66.20
26697;BME280;14312;52.614;13.496;2022-10-16T00:10:50;100489.78;;;18.51;66.17
26697;BME280;14312;52.614;13.496;2022-10-16T00:13:38;100509.47;;;18.52;66.13
26697;BME280;14312;52.614;13.496;2022-10-16T00:16:24;100498.66;;;18.52;66.18
26697;BME280;14312;52.614;13.496;2022-10-16T00:19:11;100500.75;;;18.55;66.17
26697;BME280;14312;52.614;13.496;2022-10-16T00:21:57;100500.22;;;18.58;66.22
26697;BME280;14312;52.614;13.496;2022-10-16T00:24:43;100505.03;;;18.61;66.45
26697;BME280;14312;52.614;13.496;2022-10-16T00:27:30;100502.34;;;18.61;66.53
26697;BME280;14312;52.614;13.496;2022-10-16T00:30:15;100509.81;;;18.64;66.21
26697;BME280;14312;52.614;13.496;2022-10-16T00:33:01;100510.34;;;18.66;66.65
26697;BME280;14312;52.614;13.496;2022-10-16T00:35:47;100510.53;;;18.69;66.39
26697;BME280;14312;52.614;13.496;2022-10-16T00:38:33;100516.94;;;18.73;66.33
26697;BME280;14312;52.614;13.496;2022-10-16T00:41:20;100530.16;;;18.75;66.54
26697;BME280;14312;52.614;13.496;2022-10-16T00:47:47;100518.75;;;18.78;66.58
26697;BME280;14312;52.614;13.496;2022-10-16T00:50:35;100507.38;;;18.81;66.44
26697;BME280;14312;52.614;13.496;2022-10-16T00:53:21;100514.06;;;18.84;66.53
26697;BME280;14312;52.614;13.496;2022-10-16T00:56:07;100520.78;;;18.86;66.37
26697;BME280;14312;52.614;13.496;2022-10-16T00:58:52;100518.59;;;18.88;66.34
26697;BME280;14312;52.614;13.496;2022-10-16T01:01:38;100515.59;;;18.90;66.17
26697;BME280;14312;52.614;13.496;2022-10-16T01:04:25;100527.69;;;18.92;66.35
26697;BME280;14312;52.614;13.496;2022-10-16T01:07:16;100537.38;;;18.93;66.56
26697;BME280;14312;52.614;13.496;2022-10-16T01:10:42;100536.47;;;18.98;66.28
26697;BME280;14312;52.614;13.496;2022-10-16T01:13:35;100527.78;;;19.01;66.68
26697;BME280;14312;52.614;13.496;2022-10-16T01:16:46;100540.91;;;19.07;66.33
26697;BME280;14312;52.614;13.496;2022-10-16T01:23:05;100534.00;;;19.15;66.39
26697;BME280;14312;52.614;13.496;2022-10-16T01:28:51;100533.63;;;19.22;66.03
26697;BME280;14312;52.614;13.496;2022-10-16T01:31:40;100532.81;;;19.21;66.24
26697;BME280;14312;52.614;13.496;2022-10-16T01:34:38;100533.03;;;19.25;66.11
26697;BME280;14312;52.614;13.496;2022-10-16T01:38:05;100547.00;;;19.27;65.83
26697;BME280;14312;52.614;13.496;2022-10-16T01:41:01;100548.13;;;19.26;65.87
26697;BME280;14312;52.614;13.496;2022-10-16T01:44:07;100552.94;;;19.29;65.85
26697;BME280;14312;52.614;13.496;2022-10-16T01:46:54;100554.03;;;19.28;65.87
26697;BME280;14312;52.614;13.496;2022-10-16T01:49:41;100558.91;;;19.26;66.01
26697;BME280;14312;52.614;13.496;2022-10-16T01:52:28;100559.44;;;19.28;65.79
26697;BME280;14312;52.614;13.496;2022-10-16T01:55:19;100552.94;;;19.29;65.82
26697;BME280;14312;52.614;13.496;2022-10-16T01:58:07;100547.53;;;19.29;65.79
26697;BME280;14312;52.614;13.496;2022-10-16T02:00:54;100551.84;;;19.30;65.98
26697;BME280;14312;52.614;13.496;2022-10-16T02:03:41;100551.84;;;19.30;66.03
26697;BME280;14312;52.614;13.496;2022-10-16T02:06:28;100560.44;;;19.32;66.06
26697;BME280;14312;52.614;13.496;2022-10-16T02:09:15;100555.03;;;19.32;65.90
26697;BME280;14312;52.614;13.496;2022-10-16T02:12:19;100565.25;;;19.35;65.79
26697;BME280;14312;52.614;13.496;2022-10-16T02:15:06;100558.22;;;19.34;65.63
26697;BME280;14312;52.614;13.496;2022-10-16T02:17:52;100559.84;;;19.35;65.96
26697;BME280;14312;52.614;13.496;2022-10-16T02:20:48;100572.25;;;19.36;65.67
26697;BME280;14312;52.614;13.496;2022-10-16T02:23:55;100590.06;;;19.37;65.80
26697;BME280;14312;52.614;13.496;2022-10-16T02:26:56;100601.69;;;19.37;65.79
26697;BME280;14312;52.614;13.496;2022-10-16T02:29:53;100593.88;;;19.36;65.90
26697;BME280;14312;52.614;13.496;2022-10-16T02:32:42;100588.16;;;19.37;65.56
26697;BME280;14312;52.614;13.496;2022-10-16T02:35:31;100598.69;;;19.39;65.73
26697;BME280;14312;52.614;13.496;2022-10-16T02:38:18;100591.16;;;19.36;65.62
26697;BME280;14312;52.614;13.496;2022-10-16T02:41:06;100597.09;;;19.38;65.48
26697;BME280;14312;52.614;13.496;2022-10-16T02:43:52;100603.59;;;19.37;65.48
26697;BME280;14312;52.614;13.496;2022-10-16T02:46:38;100597.38;;;19.36;65.58
26697;BME280;14312;52.614;13.496;2022-10-16T02:49:24;100597.66;;;19.35;65.66
26697;BME280;14312;52.614;13.496;2022-10-16T02:52:10;100598.47;;;19.35;65.59
26697;BME280;14312;52.614;13.496;2022-10-16T02:54:56;100592.25;;;19.35;65.26
26697;BME280;14312;52.614;13.496;2022-10-16T02:57:42;100600.38;;;19.35;65.57
26697;BME280;14312;52.614;13.496;2022-10-16T03:00:30;100595.78;;;19.35;65.32
26697;BME280;14312;52.614;13.496;2022-10-16T03:03:16;100612.28;;;19.34;65.54
26697;BME280;14312;52.614;13.496;2022-10-16T03:06:02;100600.66;;;19.33;65.36
26697;BME280;14312;52.614;13.496;2022-10-16T03:08:48;100602.09;;;19.31;65.41
26697;BME280;14312;52.614;13.496;2022-10-16T03:11:34;100596.69;;;19.31;65.29
26697;BME280;14312;52.614;13.496;2022-10-16T03:14:20;100596.69;;;19.31;65.30
26697;BME280;14312;52.614;13.496;2022-10-16T03:17:06;100601.56;;;19.29;65.31
26697;BME280;14312;52.614;13.496;2022-10-16T03:19:52;100612.97;;;19.26;65.05
26697;BME280;14312;52.614;13.496;2022-10-16T03:22:38;100610.88;;;19.23;65.09
26697;BME280;14312;52.614;13.496;2022-10-16T03:25:24;100614.66;;;19.22;65.21
26697;BME280;14312;52.614;13.496;2022-10-16T03:28:10;100620.97;;;19.17;65.10
26697;BME280;14312;52.614;13.496;2022-10-16T03:30:56;100627.75;;;19.14;65.38
26697;BME280;14312;52.614;13.496;2022-10-16T03:33:41;100628.06;;;19.13;65.18
26697;BME280;14312;52.614;13.496;2022-10-16T03:36:28;100617.06;;;19.09;65.13
26697;BME280;14312;52.614;13.496;2022-10-16T03:39:13;100621.94;;;19.07;65.04
26697;BME280;14312;52.614;13.496;2022-10-16T03:41:59;100631.44;;;19.05;65.27
26697;BME280;14312;52.614;13.496;2022-10-16T03:44:45;100629.06;;;19.03;65.08
26697;BME280;14312;52.614;13.496;2022-10-16T03:47:31;100629.63;;;19.00;65.14
26697;BME280;14312;52.614;13.496;2022-10-16T03:50:19;100637.22;;;18.98;65.09
26697;BME280;14312;52.614;13.496;2022-10-16T03:53:09;100643.22;;;18.95;64.92
26697;BME280;14312;52.614;13.496;2022-10-16T03:55:55;100654.59;;;18.92;65.20
26697;BME280;14312;52.614;13.496;2022-10-16T03:58:40;100664.88;;;18.90;65.20
26697;BME280;14312;52.614;13.496;2022-10-16T04:01:28;100668.78;;;18.84;65.17
26697;BME280;14312;52.614;13.496;2022-10-16T04:04:14;100663.97;;;18.81;65.37
26697;BME280;14312;52.614;13.496;2022-10-16T04:07:00;100665.06;;;18.80;65.03
26697;BME280;14312;52.614;13.496;2022-10-16T04:09:45;100675.34;;;18.78;65.31
26697;BME280;14312;52.614;13.496;2022-10-16T04:12:31;100657.63;;;18.72;65.31
26697;BME280;14312;52.614;13.496;2022-10-16T04:15:17;100669.22;;;18.72;65.38
26697;BME280;14312;52.614;13.496;2022-10-16T04:18:03;100674.41;;;18.69;65.39
26697;BME280;14312;52.614;13.496;2022-10-16T04:20:49;100677.69;;;18.66;65.16
26697;BME280;14312;52.614;13.496;2022-10-16T04:23:34;100672.88;;;18.63;65.75
26697;BME280;14312;52.614;13.496;2022-10-16T04:26:20;100672.88;;;18.63;65.46
26697;BME280;14312;52.614;13.496;2022-10-16T04:29:06;100676.16;;;18.60;65.60
26697;BME280;14312;52.614;13.496;2022-10-16T04:31:52;100667.56;;;18.58;65.57
26697;BME280;14312;52.614;13.496;2022-10-16T04:34:39;100674.03;;;18.57;65.75
26697;BME280;14312;52.614;13.496;2022-10-16T04:37:26;100676.19;;;18.55;65.72
26697;BME280;14312;52.614;13.496;2022-10-16T04:40:12;100670.78;;;18.55;66.02
26697;BME280;14312;52.614;13.496;2022-10-16T04:42:58;100658.19;;;18.50;66.01
26697;BME280;14312;52.614;13.496;2022-10-16T04:45:44;100678.16;;;18.49;65.80
26697;BME280;14312;52.614;13.496;2022-10-16T04:48:30;100675.75;;;18.48;66.16
26697;BME280;14312;52.614;13.496;2022-10-16T04:51:16;100672.56;;;18.46;66.62
26697;BME280;14312;52.614;13.496;2022-10-16T04:54:02;100663.94;;;18.44;66.14
26697;BME280;14312;52.614;13.496;2022-10-16T04:56:47;100663.44;;;18.42;66.22
26697;BME280;14312;52.614;13.496;2022-10-16T04:59:35;100660.25;;;18.39;66.18
26697;BME280;14312;52.614;13.496;2022-10-16T05:02:21;100662.41;;;18.37;66.45
26697;BME280;14312;52.614;13.496;2022-10-16T05:05:07;100659.72;;;18.37;66.59
26697;BME280;14312;52.614;13.496;2022-10-16T05:07:53;100666.50;;;18.35;66.30
26697;BME280;14312;52.614;13.496;2022-10-16T05:10:40;100680.25;;;18.33;66.43
26697;BME280;14312;52.614;13.496;2022-10-16T05:13:26;100690.84;;;18.30;66.26
26697;BME280;14312;52.614;13.496;2022-10-16T05:16:13;100703.00;;;18.27;66.30
26697;BME280;14312;52.614;13.496;2022-10-16T05:18:58;100704.09;;;18.26;66.52
26697;BME280;14312;52.614;13.496;2022-10-16T05:21:44;100714.41;;;18.24;66.75
26697;BME280;14312;52.614;13.496;2022-10-16T05:24:30;100711.97;;;18.23;66.51
26697;BME280;14312;52.614;13.496;2022-10-16T05:27:15;100707.16;;;18.20;66.82
26697;BME280;14312;52.614;13.496;2022-10-16T05:30:05;100713.66;;;18.19;67.10
26697;BME280;14312;52.614;13.496;2022-10-16T05:32:51;100712.34;;;18.16;66.86
26697;BME280;14312;52.614;13.496;2022-10-16T05:35:36;100710.72;;;18.15;66.85
26697;BME280;14312;52.614;13.496;2022-10-16T05:38:22;100705.31;;;18.15;67.12
26697;BME280;14312;52.614;13.496;2022-10-16T05:41:10;100708.31;;;18.14;67.27
26697;BME280;14312;52.614;13.496;2022-10-16T05:43:55;100718.28;;;18.13;66.91
26697;BME280;14312;52.614;13.496;2022-10-16T05:46:41;100723.69;;;18.13;66.64
26697;BME280;14312;52.614;13.496;2022-10-16T05:49:27;100731.28;;;18.11;66.89
26697;BME280;14312;52.614;13.496;2022-10-16T05:52:13;100734.00;;;18.06;66.88
26697;BME280;14312;52.614;13.496;2022-10-16T05:54:58;100735.41;;;18.04;66.96
26697;BME280;14312;52.614;13.496;2022-10-16T05:57:45;100731.38;;;18.01;67.12
26697;BME280;14312;52.614;13.496;2022-10-16T06:00:31;100729.78;;;18.00;67.00
26697;BME280;14312;52.614;13.496;2022-10-16T06:03:17;100729.25;;;17.98;67.35
26697;BME280;14312;52.614;13.496;2022-10-16T06:06:09;100728.16;;;17.99;67.61
26697;BME280;14312;52.614;13.496;2022-10-16T06:08:56;100736.25;;;17.99;67.50
26697;BME280;14312;52.614;13.496;2022-10-16T06:11:42;100742.44;;;17.99;67.46
26697;BME280;14312;52.614;13.496;2022-10-16T06:14:28;100740.56;;;18.00;67.70
26697;BME280;14312;52.614;13.496;2022-10-16T06:17:14;100753.16;;;18.05;67.75
26697;BME280;14312;52.614;13.496;2022-10-16T06:20:00;100745.59;;;18.07;67.58
26697;BME280;14312;52.614;13.496;2022-10-16T06:22:46;100751.25;;;18.10;67.76
26697;BME280;14312;52.614;13.496;2022-10-16T06:25:31;100746.88;;;18.14;67.56
26697;BME280;14312;52.614;13.496;2022-10-16T06:28:20;100754.91;;;18.19;67.78
26697;BME280;14312;52.614;13.496;2022-10-16T06:31:09;100753.78;;;18.25;67.67
26697;BME280;14312;52.614;13.496;2022-10-16T06:33:55;100744.56;;;18.26;67.58
26697;BME280;14312;52.614;13.496;2022-10-16T06:36:41;100747.78;;;18.28;67.86
26697;BME280;14312;52.614;13.496;2022-10-16T06:39:28;100764.50;;;18.30;67.66
26697;BME280;14312;52.614;13.496;2022-10-16T06:42:14;100769.63;;;18.32;67.96
26697;BME280;14312;52.614;13.496;2022-10-16T06:45:00;100772.00;;;18.33;67.84
26697;BME280;14312;52.614;13.496;2022-10-16T06:47:47;100777.91;;;18.35;68.18
26697;BME280;14312;52.614;13.496;2022-10-16T06:50:32;100793.03;;;18.36;67.84
26697;BME280;14312;52.614;13.496;2022-10-16T06:53:18;100786.53;;;18.37;67.96
26697;BME280;14312;52.614;13.496;2022-10-16T06:56:19;100793.47;;;18.44;68.18
26697;BME280;14312;52.614;13.496;2022-10-16T06:59:08;100784.84;;;18.42;68.15
26697;BME280;14312;52.614;13.496;2022-10-16T07:01:59;100787.44;;;18.52;68.01
26697;BME280;14312;52.614;13.496;2022-10-16T07:04:44;100782.56;;;18.54;68.19
26697;BME280;14312;52.614;13.496;2022-10-16T07:07:30;100802.44;;;18.63;67.93
26697;BME280;14312;52.614;13.496;2022-10-16T07:10:16;100795.88;;;18.69;67.78
26697;BME280;14312;52.614;13.496;2022-10-16T07:13:02;100796.94;;;18.73;67.85
26697;BME280;14312;52.614;13.496;2022-10-16T07:15:48;100811.97;;;18.79;67.58
26697;BME280;14312;52.614;13.496;2022-10-16T07:18:34;100811.41;;;18.82;67.81
26697;BME280;14312;52.614;13.496;2022-10-16T07:21:26;100831.22;;;18.91;67.66
26697;BME280;14312;52.614;13.496;2022-10-16T07:24:15;100828.25;;;18.93;67.33
26697;BME280;14312;52.614;13.496;2022-10-16T07:27:01;100818.50;;;18.97;67.40
26697;BME280;14312;52.614;13.496;2022-10-16T07:29:50;100809.59;;;18.96;67.47
26697;BME280;14312;52.614;13.496;2022-10-16T07:32:35;100813.28;;;19.00;67.62
26697;BME280;14312;52.614;13.496;2022-10-16T07:35:24;100818.34;;;19.07;67.49
26697;BME280;14312;52.614;13.496;2022-10-16T07:38:10;100803.94;;;19.11;67.53
26697;BME280;14312;52.614;13.496;2022-10-16T07:41:06;100819.00;;;19.17;67.71
26697;BME280;14312;52.614;13.496;2022-10-16T07:43:53;100816.78;;;19.20;67.49
26697;BME280;14312;52.614;13.496;2022-10-16T07:46:39;100814.03;;;19.25;67.57
26697;BME280;14312;52.614;13.496;2022-10-16T07:49:25;100825.28;;;19.32;67.70
26697;BME280;14312;52.614;13.496;2022-10-16T07:52:16;100833.31;;;19.37;67.53
26697;BME280;14312;52.614;13.496;2022-10-16T07:55:02;100822.91;;;19.44;67.47
26697;BME280;14312;52.614;13.496;2022-10-16T07:57:51;100814.19;;;19.52;67.24
26697;BME280;14312;52.614;13.496;2022-10-16T08:00:37;100822.72;;;19.59;66.94
26697;BME280;14312;52.614;13.496;2022-10-16T08:03:23;100813.41;;;19.65;66.74
26697;BME280;14312;52.614;13.496;2022-10-16T08:06:09;100822.25;;;19.71;66.68
26697;BME280;14312;52.614;13.496;2022-10-16T08:08:56;100836.00;;;19.74;66.85
26697;BME280;14312;52.614;13.496;2022-10-16T08:11:41;100844.00;;;19.79;66.83
26697;BME280;14312;52.614;13.496;2022-10-16T08:14:27;100856.91;;;19.82;66.69
26697;BME280;14312;52.614;13.496;2022-10-16T08:17:14;100859.56;;;19.87;66.48
26697;BME280;14312;52.614;13.496;2022-10-16T08:19:59;100851.94;;;19.89;66.49
26697;BME280;14312;52.614;13.496;2022-10-16T08:22:45;100852.97;;;19.93;66.30
26697;BME280;14312;52.614;13.496;2022-10-16T08:25:31;100841.53;;;19.97;66.26
26697;BME280;14312;52.614;13.496;2022-10-16T08:28:16;100837.97;;;20.01;66.16
26697;BME280;14312;52.614;13.496;2022-10-16T08:31:14;100839.75;;;20.06;66.21
26697;BME280;14312;52.614;13.496;2022-10-16T08:34:00;100843.78;;;20.08;65.98
26697;BME280;14312;52.614;13.496;2022-10-16T08:36:46;100856.13;;;20.14;65.93
26697;BME280;14312;52.614;13.496;2022-10-16T08:39:31;100852.03;;;20.17;66.13
26697;BME280;14312;52.614;13.496;2022-10-16T08:45:55;100865.78;;;20.34;65.56
26697;BME280;14312;52.614;13.496;2022-10-16T08:48:47;100864.69;;;20.35;65.71
26697;BME280;14312;52.614;13.496;2022-10-16T08:51:36;100864.91;;;20.39;65.97
26697;BME280;14312;52.614;13.496;2022-10-16T08:54:41;100858.47;;;20.48;65.83
26697;BME280;14312;52.614;13.496;2022-10-16T08:57:29;100857.28;;;20.54;65.54
26697;BME280;14312;52.614;13.496;2022-10-16T09:00:17;100859.91;;;20.59;65.29
26697;BME280;14312;52.614;13.496;2022-10-16T09:12:36;100890.19;;;21.02;65.12
26697;BME280;14312;52.614;13.496;2022-10-16T09:15:43;100885.75;;;21.20;64.60
26697;BME280;14312;52.614;13.496;2022-10-16T09:18:51;100888.13;;;21.35;64.49
26697;BME280;14312;52.614;13.496;2022-10-16T09:21:44;100887.91;;;21.45;64.44
26697;BME280;14312;52.614;13.496;2022-10-16T09:24:30;100886.56;;;21.57;64.13
26697;BME280;14312;52.614;13.496;2022-10-16T09:27:16;100888.59;;;21.73;63.43
26697;BME280;14312;52.614;13.496;2022-10-16T09:30:11;100883.59;;;21.89;63.16
26697;BME280;14312;52.614;13.496;2022-10-16T09:32:58;100892.94;;;21.97;62.34
26697;BME280;14312;52.614;13.496;2022-10-16T09:35:46;100893.28;;;22.04;62.37
26697;BME280;14312;52.614;13.496;2022-10-16T09:38:35;100889.84;;;22.12;61.91
26697;BME280;14312;52.614;13.496;2022-10-16T09:41:24;100884.59;;;22.15;61.40
26697;BME280;14312;52.614;13.496;2022-10-16T09:47:11;100893.94;;;22.32;60.50
26697;BME280;14312;52.614;13.496;2022-10-16T09:49:59;100911.22;;;22.36;60.39
26697;BME280;14312;52.614;13.496;2022-10-16T09:52:47;100909.97;;;22.42;60.58
26697;BME280;14312;52.614;13.496;2022-10-16T09:55:33;100913.53;;;22.51;60.19
26697;BME280;14312;52.614;13.496;2022-10-16T09:58:23;100915.00;;;22.57;60.84
26697;BME280;14312;52.614;13.496;2022-10-16T10:01:13;100915.84;;;22.66;60.54
26697;BME280;14312;52.614;13.496;2022-10-16T10:04:01;100913.97;;;22.75;60.52
26697;BME280;14312;52.614;13.496;2022-10-16T10:06:54;100923.44;;;22.86;60.39
26697;BME280;14312;52.614;13.496;2022-10-16T10:09:44;100925.25;;;22.99;59.72
26697;BME280;14312;52.614;13.496;2022-10-16T10:12:32;100920.31;;;23.10;58.85
26697;BME280;14312;52.614;13.496;2022-10-16T10:15:20;100922.88;;;23.15;58.21
26697;BME280;14312;52.614;13.496;2022-10-16T10:18:18;100922.72;;;23.12;57.64
26697;BME280;14312;52.614;13.496;2022-10-16T10:21:14;100926.84;;;23.00;57.72
26697;BME280;14312;52.614;13.496;2022-10-16T10:24:00;100935.28;;;22.90;58.01
26697;BME280;14312;52.614;13.496;2022-10-16T10:27:06;100938.47;;;22.84;57.87
26697;BME280;14312;52.614;13.496;2022-10-16T10:33:31;100933.06;;;22.61;58.25
26697;BME280;14312;52.614;13.496;2022-10-16T10:42:39;100958.97;;;22.59;58.60
26697;BME280;14312;52.614;13.496;2022-10-16T10:45:44;100961.19;;;22.57;58.63
26697;BME280;14312;52.614;13.496;2022-10-16T10:51:50;100947.81;;;22.69;58.63
26697;BME280;14312;52.614;13.496;2022-10-16T10:55:44;100951.69;;;22.77;58.49
26697;BME280;14312;52.614;13.496;2022-10-16T10:58:32;100958.13;;;22.89;58.90
26697;BME280;14312;52.614;13.496;2022-10-16T11:05:35;100958.25;;;23.24;57.99
26697;BME280;14312;52.614;13.496;2022-10-16T11:08:36;100961.16;;;23.36;56.72
26697;BME280;14312;52.614;13.496;2022-10-16T11:11:41;100960.38;;;23.44;56.60
26697;BME280;14312;52.614;13.496;2022-10-16T11:17:39;100964.34;;;23.38;55.67
26697;BME280;14312;52.614;13.496;2022-10-16T11:21:04;100965.63;;;23.32;55.57
26697;BME280;14312;52.614;13.496;2022-10-16T11:27:00;100966.28;;;23.29;56.02
26697;BME280;14312;52.614;13.496;2022-10-16T11:29:57;100956.31;;;23.24;55.61
26697;BME280;14312;52.614;13.496;2022-10-16T11:33:18;100951.69;;;23.25;56.33
26697;BME280;14312;52.614;13.496;2022-10-16T11:36:29;100943.53;;;23.25;56.02
26697;BME280;14312;52.614;13.496;2022-10-16T11:39:25;100949.94;;;23.29;54.92
26697;BME280;14312;52.614;13.496;2022-10-16T11:42:24;100946.44;;;23.37;55.48
26697;BME280;14312;52.614;13.496;2022-10-16T11:45:26;100957.19;;;23.59;55.84
26697;BME280;14312;52.614;13.496;2022-10-16T11:48:32;100943.44;;;24.07;55.04
26697;BME280;14312;52.614;13.496;2022-10-16T11:58:02;100955.34;;;25.55;51.96
26697;BME280;14312;52.614;13.496;2022-10-16T12:04:05;100954.16;;;26.39;48.70
26697;BME280;14312;52.614;13.496;2022-10-16T12:07:05;100969.91;;;26.66;48.73
26697;BME280;14312;52.614;13.496;2022-10-16T12:09:53;100961.94;;;26.73;47.69
26697;BME280;14312;52.614;13.496;2022-10-16T12:12:41;100961.50;;;26.71;47.65
26697;BME280;14312;52.614;13.496;2022-10-16T12:15:32;100976.53;;;26.77;45.55
26697;BME280;14312;52.614;13.496;2022-10-16T12:18:22;100977.44;;;26.81;45.81
26697;BME280;14312;52.614;13.496;2022-10-16T12:21:10;100976.78;;;26.84;45.43
26697;BME280;14312;52.614;13.496;2022-10-16T12:23:58;100977.94;;;26.96;45.31
26697;BME280;14312;52.614;13.496;2022-10-16T12:26:52;100969.72;;;27.08;44.89
26697;BME280;14312;52.614;13.496;2022-10-16T12:29:39;100976.34;;;27.19;44.89
26697;BME280;14312;52.614;13.496;2022-10-16T12:32:36;100985.47;;;27.35;43.75
26697;BME280;14312;52.614;13.496;2022-10-16T12:35:26;100986.66;;;27.50;43.83
26697;BME280;14312;52.614;13.496;2022-10-16T12:38:26;100985.66;;;27.66;44.19
26697;BME280;14312;52.614;13.496;2022-10-16T12:41:27;100983.53;;;27.88;43.88
26697;BME280;14312;52.614;13.496;2022-10-16T12:44:23;100990.47;;;27.97;42.70
26697;BME280;14312;52.614;13.496;2022-10-16T12:47:38;100985.25;;;28.08;42.50
26697;BME280;14312;52.614;13.496;2022-10-16T12:50:34;100998.75;;;28.13;41.26
26697;BME280;14312;52.614;13.496;2022-10-16T12:53:25;100994.03;;;28.14;42.33
26697;BME280;14312;52.614;13.496;2022-10-16T12:56:24;100990.47;;;28.25;42.30
26697;BME280;14312;52.614;13.496;2022-10-16T13:02:49;101000.69;;;28.40;40.61
26697;BME280;14312;52.614;13.496;2022-10-16T13:11:47;101011.06;;;28.63;39.02
26697;BME280;14312;52.614;13.496;2022-10-16T13:18:33;101013.75;;;28.75;39.13
26697;BME280;14312;52.614;13.496;2022-10-16T13:24:33;101023.72;;;28.67;37.44
26697;BME280;14312;52.614;13.496;2022-10-16T13:30:28;101027.34;;;28.56;38.09
26697;BME280;14312;52.614;13.496;2022-10-16T13:33:17;101036.00;;;28.58;36.75
26697;BME280;14312;52.614;13.496;2022-10-16T13:36:05;101040.41;;;28.47;37.47
26697;BME280;14312;52.614;13.496;2022-10-16T13:44:49;101035.88;;;28.38;37.42
26697;BME280;14312;52.614;13.496;2022-10-16T13:47:35;101033.81;;;28.35;37.89
26697;BME280;14312;52.614;13.496;2022-10-16T13:50:21;101038.16;;;28.36;37.40
26697;BME280;14312;52.614;13.496;2022-10-16T13:53:12;101042.69;;;28.44;36.96
26697;BME280;14312;52.614;13.496;2022-10-16T13:55:59;101039.50;;;28.42;36.31
26697;BME280;14312;52.614;13.496;2022-10-16T13:58:46;101031.66;;;28.41;36.18
26697;BME280;14312;52.614;13.496;2022-10-16T14:01:44;101044.78;;;28.35;37.21
26697;BME280;14312;52.614;13.496;2022-10-16T14:04:32;101047.09;;;28.33;37.04
26697;BME280;14312;52.614;13.496;2022-10-16T14:07:24;101047.53;;;28.35;34.72
26697;BME280;14312;52.614;13.496;2022-10-16T14:10:24;101053.03;;;28.35;36.63
26697;BME280;14312;52.614;13.496;2022-10-16T14:13:18;101048.50;;;28.27;35.98
26697;BME280;14312;52.614;13.496;2022-10-16T14:16:08;101049.19;;;28.24;36.74
26697;BME280;14312;52.614;13.496;2022-10-16T14:19:00;101056.28;;;28.25;36.38
26697;BME280;14312;52.614;13.496;2022-10-16T14:21:53;101055.38;;;28.21;37.32
26697;BME280;14312;52.614;13.496;2022-10-16T14:24:39;101056.16;;;28.22;36.92
26697;BME280;14312;52.614;13.496;2022-10-16T14:27:34;101061.75;;;28.25;37.42
26697;BME280;14312;52.614;13.496;2022-10-16T14:30:21;101053.63;;;28.29;37.52
26697;BME280;14312;52.614;13.496;2022-10-16T14:36:11;101065.97;;;28.51;37.54
26697;BME280;14312;52.614;13.496;2022-10-16T14:39:02;101060.44;;;28.63;37.20
26697;BME280;14312;52.614;13.496;2022-10-16T14:41:51;101065.69;;;28.68;37.81
26697;BME280;14312;52.614;13.496;2022-10-16T14:44:39;101064.75;;;28.76;37.85
26697;BME280;14312;52.614;13.496;2022-10-16T14:47:26;101072.44;;;28.86;38.13
26697;BME280;14312;52.614;13.496;2022-10-16T14:50:12;101072.38;;;28.98;37.72
26697;BME280;14312;52.614;13.496;2022-10-16T14:52:58;101075.56;;;29.00;36.41
26697;BME280;14312;52.614;13.496;2022-10-16T14:55:44;101080.78;;;28.90;36.12
26697;BME280;14312;52.614;13.496;2022-10-16T14:58:30;101067.00;;;28.74;36.43
26697;BME280;14312;52.614;13.496;2022-10-16T15:01:16;101089.53;;;28.52;36.25
26697;BME280;14312;52.614;13.496;2022-10-16T15:04:03;101092.56;;;28.34;36.66
26697;BME280;14312;52.614;13.496;2022-10-16T15:06:49;101092.84;;;28.17;37.55
26697;BME280;14312;52.614;13.496;2022-10-16T15:09:35;101093.75;;;28.09;37.92
26697;BME280;14312;52.614;13.496;2022-10-16T15:12:20;101097.28;;;28.10;38.48
26697;BME280;14312;52.614;13.496;2022-10-16T15:15:32;101090.56;;;28.19;38.84
26697;BME280;14312;52.614;13.496;2022-10-16T15:18:19;101094.00;;;28.16;38.51
26697;BME280;14312;52.614;13.496;2022-10-16T15:21:06;101097.22;;;28.06;38.40
26697;BME280;14312;52.614;13.496;2022-10-16T15:23:51;101089.56;;;27.87;38.67
26697;BME280;14312;52.614;13.496;2022-10-16T15:26:38;101100.22;;;27.77;38.93
26697;BME280;14312;52.614;13.496;2022-10-16T15:29:24;101096.13;;;27.71;39.17
26697;BME280;14312;52.614;13.496;2022-10-16T15:32:10;101102.28;;;27.67;38.87
26697;BME280;14312;52.614;13.496;2022-10-16T15:34:56;101115.53;;;27.53;38.69
26697;BME280;14312;52.614;13.496;2022-10-16T15:37:42;101120.38;;;27.36;38.81
26697;BME280;14312;52.614;13.496;2022-10-16T15:40:27;101120.84;;;27.13;39.01
26697;BME280;14312;52.614;13.496;2022-10-16T15:43:13;101123.63;;;26.93;39.19
26697;BME280;14312;52.614;13.496;2022-10-16T15:46:03;101127.63;;;26.74;38.86
26697;BME280;14312;52.614;13.496;2022-10-16T15:48:50;101132.53;;;26.48;39.07
26697;BME280;14312;52.614;13.496;2022-10-16T15:51:38;101145.97;;;26.11;39.10
26697;BME280;14312;52.614;13.496;2022-10-16T15:54:25;101154.53;;;25.72;39.94
26697;BME280;14312;52.614;13.496;2022-10-16T15:57:10;101156.28;;;25.30;40.30
26697;BME280;14312;52.614;13.496;2022-10-16T15:59:56;101167.59;;;24.94;40.51
26697;BME280;14312;52.614;13.496;2022-10-16T16:02:42;101166.00;;;24.58;41.17
26697;BME280;14312;52.614;13.496;2022-10-16T16:05:28;101169.19;;;24.26;41.57